Time;durP1;ratioP1;P1;durP2;ratioP2;P2;SDS_P1;SDS_P2;PMS_P1;PMS_P2;Temp;Humidity;BMP_temperature;BMP_pressure;BME280_temperature;BME280_humidity;BME280_pressure;Samples;Min_cycle;Max_cycle;Signal;HPM_P1;HPM_P2
2023/12/19 00:00:13;;;;;;;40.13;18.50;;;-0.50;99.90;;;;;;5089688;28;20048;-67
2023/12/19 00:02:41;;;;;;;46.42;20.65;;;-0.50;99.90;;;;;;5098560;28;20134;-68
2023/12/19 00:05:10;;;;;;;42.80;18.88;;;-0.50;99.90;;;;;;5103090;28;20024;-69
2023/12/19 00:07:36;;;;;;;41.35;17.90;;;-0.60;99.90;;;;;;5074527;28;20087;-68
2023/12/19 00:10:02;;;;;;;43.53;19.92;;;-0.50;99.90;;;;;;5088773;28;20046;-68
2023/12/19 00:12:28;;;;;;;42.53;18.90;;;-0.50;99.90;;;;;;5089220;28;20385;-68
2023/12/19 00:14:54;;;;;;;42.28;17.92;;;-0.60;99.90;;;;;;5106486;28;20040;-70
2023/12/19 00:17:20;;;;;;;36.70;17.08;;;-0.60;99.90;;;;;;5100251;28;20110;-67
2023/12/19 00:19:45;;;;;;;39.35;16.92;;;-0.60;99.90;;;;;;5102000;28;20027;-70
2023/12/19 00:22:11;;;;;;;49.20;18.05;;;-0.60;99.90;;;;;;5079305;28;20379;-68
2023/12/19 00:24:39;;;;;;;42.28;17.23;;;-0.60;99.90;;;;;;5092652;28;20716;-66
2023/12/19 00:27:05;;;;;;;35.40;17.35;;;-0.70;99.90;;;;;;5089675;28;20029;-66
2023/12/19 00:29:31;;;;;;;36.22;16.75;;;-0.70;99.90;;;;;;5101050;28;20037;-67
2023/12/19 00:31:56;;;;;;;41.88;17.73;;;-0.70;99.90;;;;;;5096616;28;20381;-67
2023/12/19 00:34:22;;;;;;;37.13;16.67;;;-0.70;99.90;;;;;;5095399;28;20033;-66
2023/12/19 00:36:47;;;;;;;38.75;17.40;;;-0.70;99.90;;;;;;5102597;28;20050;-70
2023/12/19 00:39:13;;;;;;;36.67;17.08;;;-0.60;99.90;;;;;;5099931;28;20031;-69
2023/12/19 00:41:39;;;;;;;38.47;17.00;;;-0.60;99.90;;;;;;5102856;28;20031;-71
2023/12/19 00:44:05;;;;;;;41.63;17.95;;;-0.60;99.90;;;;;;5108386;28;20051;-68
2023/12/19 00:46:31;;;;;;;41.45;17.60;;;-0.60;99.90;;;;;;5108939;28;20032;-68
2023/12/19 00:48:56;;;;;;;41.67;17.23;;;-0.60;99.90;;;;;;5089736;28;20032;-68
2023/12/19 00:51:22;;;;;;;39.95;17.23;;;-0.60;99.90;;;;;;5078198;28;20031;-65
2023/12/19 00:53:47;;;;;;;44.83;17.73;;;-0.70;99.90;;;;;;5090104;28;20028;-68
2023/12/19 00:56:13;;;;;;;42.92;18.10;;;-0.80;99.90;;;;;;5088559;28;20464;-68
2023/12/19 00:58:39;;;;;;;44.95;19.50;;;-0.80;99.90;;;;;;5098225;28;20032;-70
2023/12/19 01:01:06;;;;;;;42.28;18.73;;;-0.70;99.90;;;;;;5087914;28;20125;-68
2023/12/19 01:03:32;;;;;;;41.20;17.52;;;-0.60;99.90;;;;;;5089136;28;20042;-68
2023/12/19 01:06:00;;;;;;;41.85;17.70;;;-0.40;99.90;;;;;;5088044;28;20028;-68
2023/12/19 01:08:26;;;;;;;47.00;18.95;;;-0.40;99.90;;;;;;5102825;28;20469;-68
2023/12/19 01:10:53;;;;;;;44.60;18.42;;;-0.40;99.90;;;;;;5094198;28;20086;-66
2023/12/19 01:13:18;;;;;;;36.65;16.92;;;-0.50;99.90;;;;;;5088565;28;20043;-70
2023/12/19 01:15:44;;;;;;;44.78;18.05;;;-0.60;99.90;;;;;;5095108;28;20035;-74
2023/12/19 01:18:10;;;;;;;41.03;18.00;;;-0.70;99.90;;;;;;5094557;28;20434;-67
2023/12/19 01:20:36;;;;;;;38.58;17.00;;;-0.90;99.90;;;;;;5095276;28;20031;-68
2023/12/19 01:23:01;;;;;;;37.38;17.15;;;-1.10;99.90;;;;;;5089723;28;20444;-67
2023/12/19 01:25:27;;;;;;;43.47;17.55;;;-1.10;99.90;;;;;;5094669;28;20042;-68
2023/12/19 01:27:52;;;;;;;42.00;16.92;;;-1.20;99.90;;;;;;5069705;28;20107;-67
2023/12/19 01:30:18;;;;;;;39.60;16.80;;;-1.20;99.90;;;;;;5088227;28;20036;-67
2023/12/19 01:32:43;;;;;;;41.08;17.02;;;-1.20;99.90;;;;;;5067794;28;20070;-72
2023/12/19 01:35:09;;;;;;;44.85;17.70;;;-1.20;99.90;;;;;;5107896;28;20438;-68
2023/12/19 01:37:35;;;;;;;39.10;17.08;;;-1.20;99.90;;;;;;5102471;28;20028;-67
2023/12/19 01:40:00;;;;;;;42.72;16.88;;;-1.20;99.90;;;;;;5094048;28;20031;-66
2023/12/19 01:42:27;;;;;;;38.25;17.30;;;-1.20;99.90;;;;;;5104394;28;20060;-68
2023/12/19 01:45:12;;;;;;;40.38;16.85;;;-1.10;99.90;;;;;;5107891;28;20023;-66
2023/12/19 01:47:43;;;;;;;41.05;16.65;;;-1.10;99.90;;;;;;5088597;28;20051;-69
2023/12/19 01:50:13;;;;;;;40.55;17.38;;;-1.10;99.90;;;;;;5087701;28;20115;-69
2023/12/19 01:52:55;;;;;;;43.53;17.48;;;-1.10;99.90;;;;;;5099152;28;20040;-68
2023/12/19 01:55:24;;;;;;;42.47;17.10;;;-1.10;99.90;;;;;;5105696;28;20123;-67
2023/12/19 01:57:50;;;;;;;37.00;16.60;;;-1.10;99.90;;;;;;5090974;28;20445;-73
2023/12/19 02:00:16;;;;;;;38.03;17.00;;;-1.20;99.90;;;;;;5087340;28;20048;-68
2023/12/19 02:02:43;;;;;;;37.55;16.45;;;-1.20;99.90;;;;;;5086433;28;20039;-66
2023/12/19 02:05:09;;;;;;;40.05;16.38;;;-1.10;99.90;;;;;;5105308;28;20320;-68
2023/12/19 02:07:34;;;;;;;39.25;17.23;;;-1.10;99.90;;;;;;5088610;28;20035;-67
2023/12/19 02:10:00;;;;;;;37.10;16.30;;;-1.10;99.90;;;;;;5093856;28;20032;-67
2023/12/19 02:12:26;;;;;;;38.65;16.90;;;-1.10;99.90;;;;;;5083125;28;20082;-68
2023/12/19 02:14:53;;;;;;;34.70;15.75;;;-1.20;99.90;;;;;;5102452;28;20050;-68
2023/12/19 02:17:21;;;;;;;34.53;15.25;;;-1.20;99.90;;;;;;5089670;28;20065;-69
2023/12/19 02:19:48;;;;;;;38.38;15.63;;;-1.20;99.90;;;;;;5101822;28;20034;-68
2023/12/19 02:22:14;;;;;;;39.70;16.23;;;-1.20;99.90;;;;;;5105308;28;20043;-67
2023/12/19 02:24:40;;;;;;;38.17;16.80;;;-1.20;99.90;;;;;;5076709;28;20066;-67
2023/12/19 02:27:06;;;;;;;35.17;16.67;;;-1.20;99.90;;;;;;5105146;28;20040;-67
2023/12/19 02:29:33;;;;;;;40.10;17.00;;;-1.20;99.90;;;;;;5092614;28;20474;-66
2023/12/19 02:31:59;;;;;;;47.58;17.65;;;-1.20;99.90;;;;;;5102208;28;20059;-67
2023/12/19 02:34:25;;;;;;;35.58;16.23;;;-1.20;99.90;;;;;;5105575;28;20032;-68
2023/12/19 02:36:51;;;;;;;36.92;16.08;;;-1.40;99.90;;;;;;5102928;28;20386;-74
2023/12/19 02:39:16;;;;;;;34.85;16.55;;;-1.40;99.90;;;;;;5081315;28;20036;-66
2023/12/19 02:41:42;;;;;;;41.03;16.40;;;-1.40;99.90;;;;;;5092120;28;20381;-66
2023/12/19 02:44:08;;;;;;;38.20;15.48;;;-1.40;99.90;;;;;;5094321;28;20119;-68
2023/12/19 02:46:34;;;;;;;34.28;15.50;;;-1.40;99.90;;;;;;5103166;28;20035;-68
2023/12/19 02:49:00;;;;;;;35.00;16.35;;;-1.40;99.90;;;;;;5103866;28;20035;-68
2023/12/19 02:51:26;;;;;;;34.60;14.45;;;-1.30;99.90;;;;;;5081722;28;20031;-66
2023/12/19 02:53:53;;;;;;;42.55;17.00;;;-1.30;99.90;;;;;;5109466;28;20028;-73
2023/12/19 02:56:18;;;;;;;41.20;16.83;;;-1.20;99.90;;;;;;5098148;28;20104;-67
2023/12/19 02:58:44;;;;;;;41.53;17.42;;;-1.40;99.90;;;;;;5091243;28;20036;-69
2023/12/19 03:01:10;;;;;;;38.05;16.75;;;-1.40;99.90;;;;;;5094955;28;20154;-67
2023/12/19 03:03:35;;;;;;;35.35;15.85;;;-1.50;99.90;;;;;;5110970;28;20063;-66
2023/12/19 03:06:01;;;;;;;40.92;16.85;;;-1.60;99.90;;;;;;5108682;28;20040;-66
2023/12/19 03:08:27;;;;;;;38.35;15.65;;;-1.60;99.90;;;;;;5096985;28;20039;-67
2023/12/19 03:10:53;;;;;;;33.10;14.15;;;-1.60;99.90;;;;;;5078684;28;20107;-74
2023/12/19 03:13:18;;;;;;;34.03;14.45;;;-1.60;99.90;;;;;;5090260;28;20106;-68
2023/12/19 03:15:44;;;;;;;38.30;15.38;;;-1.60;99.90;;;;;;5094377;28;20043;-71
2023/12/19 03:18:10;;;;;;;33.72;14.55;;;-1.50;99.90;;;;;;5099631;28;20027;-67
2023/12/19 03:20:36;;;;;;;33.60;15.02;;;-1.40;99.90;;;;;;5100065;28;20023;-66
2023/12/19 03:23:02;;;;;;;36.60;15.35;;;-1.50;99.90;;;;;;5096603;28;20158;-68
2023/12/19 03:25:28;;;;;;;32.85;15.85;;;-1.50;99.90;;;;;;5099768;28;20024;-68
2023/12/19 03:27:53;;;;;;;35.55;15.50;;;-1.60;99.90;;;;;;5108155;28;20442;-73
2023/12/19 03:30:19;;;;;;;35.13;15.55;;;-1.60;99.90;;;;;;5079864;28;20123;-70
2023/12/19 03:32:45;;;;;;;33.80;15.38;;;-1.50;99.90;;;;;;5106732;28;20378;-67
2023/12/19 03:35:14;;;;;;;43.75;16.85;;;-1.50;99.90;;;;;;5108108;28;20028;-67
2023/12/19 03:37:39;;;;;;;42.70;16.80;;;-1.50;99.90;;;;;;5098390;28;20036;-68
2023/12/19 03:40:06;;;;;;;37.90;15.57;;;-1.50;99.90;;;;;;5095313;28;20023;-67
2023/12/19 03:42:33;;;;;;;40.50;15.43;;;-1.60;99.90;;;;;;5099901;28;20117;-66
2023/12/19 03:44:58;;;;;;;43.28;16.15;;;-1.70;99.90;;;;;;5099769;28;20073;-70
2023/12/19 03:47:24;;;;;;;35.58;15.15;;;-1.70;99.90;;;;;;5105576;28;20529;-69
2023/12/19 03:49:50;;;;;;;38.20;14.52;;;-1.80;99.90;;;;;;5101242;28;20030;-67
2023/12/19 03:52:16;;;;;;;38.42;15.27;;;-1.70;99.90;;;;;;5105287;28;20020;-70
2023/12/19 03:54:42;;;;;;;37.67;15.65;;;-1.70;99.90;;;;;;5105237;28;20457;-67
2023/12/19 03:57:08;;;;;;;37.55;16.10;;;-1.70;99.90;;;;;;5099002;28;20023;-69
2023/12/19 03:59:34;;;;;;;35.17;15.35;;;-1.80;99.90;;;;;;5099535;28;20140;-67
2023/12/19 04:02:00;;;;;;;36.67;15.52;;;-1.90;99.90;;;;;;5085224;28;20497;-66
2023/12/19 04:04:26;;;;;;;35.70;14.43;;;-1.90;99.90;;;;;;5088590;28;20040;-68
2023/12/19 04:06:52;;;;;;;35.53;14.15;;;-1.90;99.90;;;;;;5094963;28;20020;-66
2023/12/19 04:09:18;;;;;;;37.70;15.15;;;-1.80;99.90;;;;;;5089112;28;20323;-68
2023/12/19 04:11:47;;;;;;;31.13;13.40;;;-1.80;99.90;;;;;;5095796;28;20033;-68
2023/12/19 04:14:16;;;;;;;34.55;15.13;;;-1.70;99.90;;;;;;5088038;28;20036;-66
2023/12/19 04:16:42;;;;;;;41.25;14.50;;;-1.80;99.90;;;;;;5087046;28;20039;-67
2023/12/19 04:19:07;;;;;;;30.50;13.63;;;-1.90;99.90;;;;;;5080454;28;20028;-68
2023/12/19 04:21:33;;;;;;;33.20;13.55;;;-1.90;99.90;;;;;;5089648;28;20043;-66
2023/12/19 04:23:59;;;;;;;33.38;14.35;;;-1.90;99.90;;;;;;5087908;28;20126;-73
2023/12/19 04:26:24;;;;;;;33.65;13.88;;;-1.80;99.90;;;;;;5081173;28;20058;-68
2023/12/19 04:28:50;;;;;;;35.47;14.13;;;-1.80;99.90;;;;;;5079106;28;20447;-67
2023/12/19 04:31:15;;;;;;;32.30;14.20;;;-1.80;99.90;;;;;;5088007;28;20032;-67
2023/12/19 04:33:41;;;;;;;33.58;14.00;;;-1.80;99.90;;;;;;5087064;28;20044;-67
2023/12/19 04:36:09;;;;;;;40.03;13.98;;;-1.80;99.90;;;;;;5085017;28;20103;-67
2023/12/19 04:38:36;;;;;;;29.85;12.82;;;-1.80;99.90;;;;;;5084796;28;20028;-71
2023/12/19 04:41:02;;;;;;;31.60;14.18;;;-1.80;99.90;;;;;;5080974;28;20111;-66
2023/12/19 04:43:27;;;;;;;26.83;12.70;;;-1.80;99.90;;;;;;5077692;28;20443;-69
2023/12/19 04:45:53;;;;;;;26.08;11.57;;;-1.80;99.90;;;;;;5078938;28;20037;-66
2023/12/19 04:48:18;;;;;;;29.95;11.80;;;-1.70;99.90;;;;;;5072560;28;20021;-70
2023/12/19 04:50:44;;;;;;;24.73;10.60;;;-1.60;99.90;;;;;;5098530;28;20028;-69
2023/12/19 04:53:10;;;;;;;24.25;10.63;;;-1.50;99.90;;;;;;5087085;28;20450;-67
2023/12/19 04:55:36;;;;;;;24.50;10.88;;;-1.40;99.90;;;;;;5086188;28;20060;-67
2023/12/19 04:58:04;;;;;;;25.33;12.20;;;-1.20;99.90;;;;;;5071862;28;20285;-72
2023/12/19 05:00:29;;;;;;;27.20;11.93;;;-1.20;99.90;;;;;;5090909;28;20433;-66
2023/12/19 05:02:55;;;;;;;33.65;13.48;;;-1.30;99.90;;;;;;5101450;28;20040;-65
2023/12/19 05:05:21;;;;;;;38.05;14.98;;;-1.30;99.90;;;;;;5085368;28;20059;-66
2023/12/19 05:07:47;;;;;;;37.67;16.45;;;-1.50;99.90;;;;;;5078564;28;20036;-66
2023/12/19 05:10:12;;;;;;;40.42;15.45;;;-1.70;99.90;;;;;;5081131;28;20021;-64
2023/12/19 05:12:38;;;;;;;35.50;14.82;;;-1.90;99.90;;;;;;5069535;28;20028;-65
2023/12/19 05:15:05;;;;;;;33.65;14.07;;;-2.00;99.90;;;;;;5089572;28;20032;-66
2023/12/19 05:17:31;;;;;;;33.15;12.93;;;-2.10;99.90;;;;;;5095396;28;20059;-65
2023/12/19 05:19:56;;;;;;;32.50;13.60;;;-2.10;99.90;;;;;;5071963;28;20025;-67
2023/12/19 05:22:22;;;;;;;31.00;13.95;;;-2.10;99.90;;;;;;5067345;28;20126;-65
2023/12/19 05:24:49;;;;;;;32.13;13.60;;;-2.10;99.90;;;;;;5103024;28;20032;-68
2023/12/19 05:27:14;;;;;;;32.22;14.27;;;-2.20;99.90;;;;;;5085154;28;20028;-69
2023/12/19 05:29:40;;;;;;;28.33;12.60;;;-2.20;99.90;;;;;;5069342;28;20478;-68
2023/12/19 05:32:06;;;;;;;28.55;12.90;;;-2.20;99.90;;;;;;5093555;28;20024;-68
2023/12/19 05:34:32;;;;;;;32.97;13.20;;;-2.10;99.90;;;;;;5086391;28;20377;-68
2023/12/19 05:36:58;;;;;;;28.98;12.80;;;-2.10;99.90;;;;;;5085490;28;20055;-69
2023/12/19 05:39:24;;;;;;;27.25;12.15;;;-2.00;99.90;;;;;;5080145;28;20123;-69
2023/12/19 05:41:51;;;;;;;26.90;11.70;;;-2.00;99.90;;;;;;5086288;28;20024;-68
2023/12/19 05:44:17;;;;;;;27.73;11.63;;;-2.00;99.90;;;;;;5084103;28;20040;-64
2023/12/19 05:46:43;;;;;;;27.40;12.25;;;-2.00;99.90;;;;;;5093265;28;20030;-64
2023/12/19 05:49:09;;;;;;;28.02;11.98;;;-2.00;99.90;;;;;;5092329;28;20024;-65
2023/12/19 05:51:39;;;;;;;36.58;12.75;;;-2.00;99.90;;;;;;5095755;28;20082;-64
2023/12/19 05:54:05;;;;;;;27.33;12.00;;;-2.10;99.90;;;;;;5095764;28;20055;-68
2023/12/19 05:56:31;;;;;;;32.35;12.48;;;-2.00;99.90;;;;;;5071764;28;20262;-64
2023/12/19 05:58:57;;;;;;;35.83;12.98;;;-2.00;99.90;;;;;;5088859;28;20051;-65
2023/12/19 06:01:23;;;;;;;32.28;13.07;;;-2.00;99.90;;;;;;5097208;28;20024;-65
2023/12/19 06:03:48;;;;;;;29.38;12.65;;;-2.00;99.90;;;;;;5104827;28;20126;-66
2023/12/19 06:06:14;;;;;;;30.90;13.35;;;-2.10;99.90;;;;;;5093194;28;20047;-66
2023/12/19 06:08:42;;;;;;;28.17;12.27;;;-2.20;99.90;;;;;;5090625;28;20066;-65
2023/12/19 06:11:08;;;;;;;28.92;12.98;;;-2.20;99.90;;;;;;5104298;28;20645;-65
2023/12/19 06:13:33;;;;;;;27.83;12.27;;;-2.10;99.90;;;;;;5103206;28;20032;-68
2023/12/19 06:15:59;;;;;;;30.80;12.82;;;-2.10;99.90;;;;;;5090448;28;20177;-67
2023/12/19 06:18:25;;;;;;;27.25;12.18;;;-2.20;99.90;;;;;;5092371;28;20926;-63
2023/12/19 06:20:50;;;;;;;27.90;11.32;;;-2.20;99.90;;;;;;5101352;28;20036;-65
2023/12/19 06:23:16;;;;;;;29.52;12.75;;;-2.20;99.90;;;;;;5090636;28;20058;-65
2023/12/19 06:25:42;;;;;;;27.65;11.63;;;-2.20;99.90;;;;;;5106388;28;20027;-68
2023/12/19 06:28:08;;;;;;;29.88;12.13;;;-2.10;99.90;;;;;;5099391;28;20440;-69
2023/12/19 06:30:33;;;;;;;27.63;12.32;;;-2.10;99.90;;;;;;5102081;28;20748;-68
2023/12/19 06:32:59;;;;;;;28.30;12.45;;;-2.20;99.90;;;;;;5105610;28;20110;-67
2023/12/19 06:35:28;;;;;;;27.75;11.27;;;-2.20;99.90;;;;;;5084446;28;20020;-66
2023/12/19 06:37:54;;;;;;;28.17;11.70;;;-2.30;99.90;;;;;;5077910;28;20456;-70
2023/12/19 06:40:20;;;;;;;28.58;11.95;;;-2.30;99.90;;;;;;5088849;28;20024;-67
2023/12/19 06:42:47;;;;;;;27.38;11.55;;;-2.20;99.90;;;;;;5085899;28;20405;-66
2023/12/19 06:45:13;;;;;;;26.90;11.75;;;-2.20;99.90;;;;;;5082676;28;20371;-64
2023/12/19 06:47:39;;;;;;;25.67;10.98;;;-2.20;99.90;;;;;;5069074;28;20086;-68
2023/12/19 06:50:05;;;;;;;27.13;12.13;;;-2.20;99.90;;;;;;5082003;28;20127;-70
2023/12/19 06:52:31;;;;;;;23.88;11.57;;;-2.20;99.90;;;;;;5090300;28;20103;-68
2023/12/19 06:54:56;;;;;;;24.58;10.50;;;-2.20;99.90;;;;;;5078737;28;20570;-68
2023/12/19 06:57:22;;;;;;;25.33;11.40;;;-2.20;99.90;;;;;;5079321;28;20046;-68
2023/12/19 06:59:48;;;;;;;27.02;11.65;;;-2.20;99.90;;;;;;5079413;28;20071;-67
2023/12/19 07:02:14;;;;;;;24.38;11.13;;;-2.20;99.90;;;;;;5069818;28;20032;-70
2023/12/19 07:04:40;;;;;;;22.88;11.07;;;-2.10;99.90;;;;;;5073616;28;20063;-67
2023/12/19 07:07:05;;;;;;;27.15;10.98;;;-2.10;99.90;;;;;;5097405;28;20579;-73
2023/12/19 07:09:31;;;;;;;28.30;11.55;;;-2.10;99.90;;;;;;5086060;28;20027;-68
2023/12/19 07:11:57;;;;;;;31.95;11.90;;;-2.10;99.90;;;;;;5086786;28;20466;-68
2023/12/19 07:14:23;;;;;;;35.28;12.52;;;-2.10;99.90;;;;;;5092815;28;20088;-68
2023/12/19 07:16:49;;;;;;;28.83;11.20;;;-2.20;99.90;;;;;;5090652;28;20029;-69
2023/12/19 07:19:14;;;;;;;29.33;11.63;;;-2.10;99.90;;;;;;5098765;28;20089;-71
2023/12/19 07:21:40;;;;;;;25.20;11.57;;;-2.00;99.90;;;;;;5092944;28;20054;-68
2023/12/19 07:24:07;;;;;;;30.40;11.55;;;-2.00;99.90;;;;;;5102259;28;20031;-71
2023/12/19 07:26:33;;;;;;;33.00;12.18;;;-2.00;99.90;;;;;;5084840;28;20020;-67
2023/12/19 07:29:02;;;;;;;30.33;12.75;;;-1.90;99.90;;;;;;5100717;28;20078;-68
2023/12/19 07:31:33;;;;;;;32.13;12.18;;;-1.90;99.90;;;;;;5091701;28;20019;-69
2023/12/19 07:33:59;;;;;;;;;;;-2.00;99.90;;;;;;5082803;28;20035;-67
2023/12/19 07:36:25;;;;;;;33.75;12.48;;;-2.00;99.90;;;;;;5088788;28;19999;-68
2023/12/19 07:38:52;;;;;;;25.17;10.98;;;-1.90;99.90;;;;;;5089244;28;20032;-65
2023/12/19 07:41:18;;;;;;;39.08;15.77;;;-1.80;99.90;;;;;;5070548;28;20024;-68
2023/12/19 07:43:44;;;;;;;46.08;18.52;;;-1.70;99.90;;;;;;5068964;28;20036;-65
2023/12/19 07:46:10;;;;;;;31.95;14.18;;;-1.60;99.90;;;;;;5088901;28;20039;-69
2023/12/19 07:48:36;;;;;;;34.92;15.75;;;-1.40;99.90;;;;;;5097929;28;20490;-67
2023/12/19 07:51:03;;;;;;;32.05;13.93;;;-1.30;99.90;;;;;;5079263;28;20074;-67
2023/12/19 07:53:32;;;;;;;25.48;10.98;;;-1.10;99.90;;;;;;5068958;28;20119;-72
2023/12/19 07:56:00;;;;;;;25.55;12.13;;;-1.00;99.90;;;;;;5106669;28;20027;-68
2023/12/19 07:58:26;;;;;;;32.45;15.07;;;-0.70;99.90;;;;;;5099178;28;20039;-68
2023/12/19 08:00:52;;;;;;;42.50;17.20;;;-0.60;99.90;;;;;;5099202;28;20558;-69
2023/12/19 08:03:18;;;;;;;38.28;16.45;;;-0.50;99.90;;;;;;5088830;28;20036;-68
2023/12/19 08:05:50;;;;;;;36.10;16.08;;;-0.60;99.90;;;;;;5107680;28;20035;-71
2023/12/19 08:08:17;;;;;;;40.63;17.20;;;-0.50;99.90;;;;;;5100567;28;20535;-68
2023/12/19 08:10:44;;;;;;;41.05;17.52;;;-0.40;99.90;;;;;;5088100;28;20028;-69
2023/12/19 08:13:10;;;;;;;40.13;18.50;;;-0.30;99.90;;;;;;5071941;28;20118;-72
2023/12/19 08:15:35;;;;;;;46.08;20.10;;;-0.40;99.90;;;;;;5079562;28;20461;-68
2023/12/19 08:18:01;;;;;;;42.17;18.30;;;-0.40;99.90;;;;;;5100908;28;20039;-68
2023/12/19 08:20:27;;;;;;;24.70;9.95;;;-0.40;99.90;;;;;;5108140;28;20053;-67
2023/12/19 08:22:52;;;;;;;12.93;5.45;;;-0.10;99.90;;;;;;5109765;28;20404;-65
2023/12/19 08:25:18;;;;;;;23.92;10.77;;;0.60;99.90;;;;;;5083043;28;20066;-67
2023/12/19 08:27:44;;;;;;;23.52;11.10;;;1.40;99.90;;;;;;5096962;28;20040;-70
2023/12/19 08:30:10;;;;;;;27.92;12.77;;;1.50;99.90;;;;;;5069144;28;20036;-73
2023/12/19 08:32:36;;;;;;;33.28;14.35;;;1.60;99.90;;;;;;5056560;28;20036;-68
2023/12/19 08:35:02;;;;;;;24.00;10.55;;;1.60;99.90;;;;;;5092276;28;20107;-69
2023/12/19 08:37:28;;;;;;;32.00;15.27;;;1.50;99.90;;;;;;5088436;28;20401;-71
2023/12/19 08:39:56;;;;;;;28.80;12.77;;;1.50;99.90;;;;;;5089220;28;20072;-71
2023/12/19 08:42:22;;;;;;;17.92;7.82;;;1.50;99.90;;;;;;5088063;28;20478;-70
2023/12/19 08:44:50;;;;;;;20.50;10.25;;;1.80;99.90;;;;;;5076034;28;20040;-71
2023/12/19 08:47:15;;;;;;;14.95;6.10;;;2.10;99.90;;;;;;5088269;28;20020;-70
2023/12/19 08:49:44;;;;;;;12.25;5.15;;;2.40;99.90;;;;;;5088966;28;20032;-70
2023/12/19 08:52:10;;;;;;;19.30;7.93;;;2.80;99.90;;;;;;5089051;28;20029;-70
2023/12/19 08:54:36;;;;;;;15.38;7.55;;;3.10;99.90;;;;;;5087829;28;20494;-71
2023/12/19 08:57:02;;;;;;;14.85;6.50;;;3.10;99.90;;;;;;5097142;28;20516;-69
2023/12/19 08:59:28;;;;;;;13.35;6.10;;;3.10;99.90;;;;;;5107525;28;20083;-69
2023/12/19 09:01:55;;;;;;;21.73;10.20;;;3.30;99.90;;;;;;5109235;28;20027;-69
2023/12/19 09:04:21;;;;;;;20.70;9.80;;;3.20;99.90;;;;;;5081967;28;20044;-69
2023/12/19 09:06:50;;;;;;;16.48;7.60;;;2.90;99.90;;;;;;5069801;28;20082;-68
2023/12/19 09:09:16;;;;;;;16.50;7.15;;;2.70;99.90;;;;;;5070526;28;20020;-73
2023/12/19 09:11:42;;;;;;;11.65;6.07;;;2.80;99.90;;;;;;5074823;28;20051;-69
2023/12/19 09:14:11;;;;;;;17.80;7.53;;;3.00;99.90;;;;;;5075239;28;20637;-66
2023/12/19 09:16:37;;;;;;;18.08;7.00;;;3.00;99.90;;;;;;5099516;28;20126;-68
2023/12/19 09:19:04;;;;;;;10.00;5.47;;;3.00;99.90;;;;;;5068594;28;20475;-67
2023/12/19 09:21:31;;;;;;;16.10;5.70;;;3.10;99.90;;;;;;5069305;28;20393;-69
2023/12/19 09:23:56;;;;;;;9.18;4.15;;;3.50;99.90;;;;;;5085208;28;20044;-70
2023/12/19 09:26:22;;;;;;;11.38;5.22;;;3.80;99.90;;;;;;5087452;28;20035;-66
2023/12/19 09:28:48;;;;;;;14.05;5.65;;;3.90;99.90;;;;;;5070755;28;20051;-69
2023/12/19 09:31:14;;;;;;;10.35;4.93;;;3.90;99.90;;;;;;5073882;28;20032;-69
2023/12/19 09:33:40;;;;;;;13.23;6.47;;;3.90;99.90;;;;;;5097722;28;20028;-67
2023/12/19 09:36:09;;;;;;;13.55;5.72;;;3.90;99.90;;;;;;5072387;28;20024;-68
2023/12/19 09:38:36;;;;;;;13.63;5.85;;;4.10;99.90;;;;;;5071799;28;20691;-69
2023/12/19 09:41:03;;;;;;;10.90;5.90;;;4.30;99.90;;;;;;5074242;28;20071;-67
2023/12/19 09:43:33;;;;;;;11.00;5.47;;;4.40;99.90;;;;;;5091205;28;20032;-69
2023/12/19 09:46:02;;;;;;;14.40;5.93;;;4.30;99.90;;;;;;5111771;28;20428;-69
2023/12/19 09:48:33;;;;;;;13.80;6.38;;;4.30;99.90;;;;;;5111280;28;20063;-70
2023/12/19 09:51:03;;;;;;;13.38;6.20;;;4.20;99.90;;;;;;5091724;28;20542;-70
2023/12/19 09:53:34;;;;;;;12.05;6.38;;;4.30;99.90;;;;;;5071625;28;20094;-70
2023/12/19 09:56:00;;;;;;;12.48;6.38;;;4.40;99.90;;;;;;5110671;28;20054;-70
2023/12/19 09:58:31;;;;;;;12.93;5.93;;;4.40;99.90;;;;;;5100679;28;20028;-70
2023/12/19 10:00:58;;;;;;;15.45;6.82;;;4.50;99.90;;;;;;5091322;28;20048;-69
2023/12/19 10:03:25;;;;;;;13.32;6.38;;;4.40;99.90;;;;;;5093415;28;20036;-70
2023/12/19 10:05:50;;;;;;;13.75;6.95;;;4.40;99.90;;;;;;5095104;28;20416;-70
2023/12/19 10:08:17;;;;;;;15.73;6.90;;;4.50;99.90;;;;;;5091798;28;20031;-69
2023/12/19 10:10:53;;;;;;;16.73;6.88;;;4.70;99.90;;;;;;5088804;28;20024;-67
2023/12/19 10:13:32;;;;;;;12.18;6.30;;;4.80;99.90;;;;;;5061019;28;20035;-69
2023/12/19 10:16:09;;;;;;;13.15;6.07;;;4.70;99.90;;;;;;5071610;28;20139;-69
2023/12/19 10:18:39;;;;;;;14.75;6.80;;;4.90;99.90;;;;;;5091053;28;20028;-67
2023/12/19 10:21:11;;;;;;;11.77;6.32;;;5.00;99.90;;;;;;5091701;28;20035;-66
2023/12/19 10:23:43;;;;;;;14.35;6.90;;;4.90;99.90;;;;;;5084826;28;20669;-67
2023/12/19 10:26:10;;;;;;;13.38;7.07;;;5.00;99.90;;;;;;5099173;28;20075;-68
2023/12/19 10:28:40;;;;;;;16.15;6.97;;;5.20;99.90;;;;;;5070328;28;20043;-67
2023/12/19 10:31:14;;;;;;;14.02;7.18;;;5.10;99.90;;;;;;5071367;28;20490;-68
2023/12/19 10:33:45;;;;;;;14.07;6.82;;;5.10;99.90;;;;;;5073070;28;20873;-68
2023/12/19 10:36:29;;;;;;;;;;;5.00;99.90;;;;;;5094802;28;20020;-68
2023/12/19 10:38:56;;;;;;;15.00;6.63;;;5.10;99.90;;;;;;5091159;28;20342;-70
2023/12/19 10:41:30;;;;;;;16.30;7.47;;;5.00;99.90;;;;;;5089965;28;20032;-70
2023/12/19 10:43:57;;;;;;;17.67;7.38;;;5.00;99.90;;;;;;5091328;28;20032;-68
2023/12/19 10:46:26;;;;;;;17.30;7.93;;;5.00;99.90;;;;;;5108469;28;20020;-69
2023/12/19 10:48:53;;;;;;;15.63;7.50;;;5.10;99.90;;;;;;5093748;28;20041;-67
2023/12/19 10:51:41;;;;;;;14.18;7.40;;;5.10;99.90;;;;;;5069367;28;20032;-71
2023/12/19 10:54:14;;;;;;;14.10;6.97;;;5.00;99.90;;;;;;5071175;28;20091;-66
2023/12/19 10:57:06;;;;;;;14.27;7.13;;;5.00;99.90;;;;;;5071819;28;20120;-67
2023/12/19 10:59:58;;;;;;;15.35;6.75;;;5.10;99.90;;;;;;5089274;28;20040;-68
2023/12/19 11:02:39;;;;;;;16.52;7.50;;;5.20;99.90;;;;;;5070610;28;20036;-69
2023/12/19 11:05:10;;;;;;;;;;;5.20;99.90;;;;;;5086807;28;20040;-69
2023/12/19 11:07:37;;;;;;;18.00;7.75;;;5.00;99.90;;;;;;5071842;28;20354;-67
2023/12/19 11:10:05;;;;;;;14.20;6.90;;;5.10;99.90;;;;;;5080492;28;20141;-68
2023/12/19 11:12:32;;;;;;;18.98;7.82;;;5.30;99.90;;;;;;5079094;28;20044;-69
2023/12/19 11:14:57;;;;;;;14.52;6.85;;;5.50;99.90;;;;;;5085601;28;20031;-67
2023/12/19 11:17:46;;;;;;;16.67;7.57;;;5.50;99.90;;;;;;5084024;28;20062;-71
2023/12/19 11:20:24;;;;;;;18.63;7.32;;;5.50;99.90;;;;;;5083406;28;20021;-66
2023/12/19 11:23:01;;;;;;;16.08;7.53;;;5.30;99.90;;;;;;5107221;28;20485;-67
2023/12/19 11:25:41;;;;;;;18.52;7.90;;;5.40;99.90;;;;;;5069668;28;20123;-68
2023/12/19 11:28:06;;;;;;;17.15;7.93;;;5.50;99.90;;;;;;5082620;28;20039;-67
2023/12/19 11:30:40;;;;;;;20.55;8.65;;;5.70;99.90;;;;;;5088612;28;20450;-67
2023/12/19 11:33:07;;;;;;;18.48;8.73;;;5.70;99.90;;;;;;5062489;28;20042;-67
2023/12/19 11:35:33;;;;;;;19.88;9.10;;;5.60;99.90;;;;;;5071912;28;20028;-67
2023/12/19 11:38:25;;;;;;;19.77;8.80;;;5.60;99.90;;;;;;5070167;28;20029;-69
2023/12/19 11:40:57;;;;;;;17.50;8.18;;;5.60;99.90;;;;;;5071163;28;20051;-69
2023/12/19 11:43:29;;;;;;;20.75;8.98;;;5.50;99.90;;;;;;5097327;28;20036;-71
2023/12/19 11:45:55;;;;;;;20.30;9.00;;;5.40;99.90;;;;;;5070054;28;20043;-68
2023/12/19 11:48:40;;;;;;;21.85;10.02;;;5.40;99.90;;;;;;5069992;28;20046;-71
2023/12/19 11:51:10;;;;;;;24.20;9.95;;;5.50;99.90;;;;;;5107495;28;20473;-68
2023/12/19 11:53:41;;;;;;;19.97;9.60;;;5.50;99.90;;;;;;5094395;28;20051;-67
2023/12/19 11:56:11;;;;;;;21.73;9.55;;;5.50;99.90;;;;;;5069839;28;20601;-67
2023/12/19 11:58:45;;;;;;;13.88;7.18;;;5.60;99.90;;;;;;5071463;28;20043;-70
2023/12/19 12:01:11;;;;;;;23.95;11.25;;;5.80;99.90;;;;;;5087606;28;20098;-70
2023/12/19 12:03:39;;;;;;;22.27;10.40;;;5.70;99.90;;;;;;5084495;28;20040;-69
2023/12/19 12:06:06;;;;;;;22.13;10.57;;;5.90;99.90;;;;;;5092667;28;20077;-69
2023/12/19 12:08:32;;;;;;;24.33;11.02;;;6.00;99.90;;;;;;5108852;28;20032;-69
2023/12/19 12:11:02;;;;;;;22.80;11.15;;;5.80;99.90;;;;;;5099010;28;20042;-72
2023/12/19 12:13:33;;;;;;;24.23;11.95;;;5.60;99.90;;;;;;5080261;28;20076;-72
2023/12/19 12:15:59;;;;;;;26.40;11.38;;;5.60;99.90;;;;;;5107776;28;20118;-69
2023/12/19 12:18:26;;;;;;;23.98;11.23;;;5.70;99.90;;;;;;5109439;28;20066;-74
2023/12/19 12:21:08;;;;;;;25.55;11.68;;;5.60;99.90;;;;;;5109902;28;20023;-69
2023/12/19 12:23:34;;;;;;;25.30;11.52;;;5.40;99.90;;;;;;5097005;28;20036;-68
2023/12/19 12:26:00;;;;;;;23.65;11.40;;;5.50;99.90;;;;;;5092846;28;20038;-69
2023/12/19 12:28:26;;;;;;;23.38;11.25;;;5.40;99.90;;;;;;5088543;28;20425;-71
2023/12/19 12:30:56;;;;;;;25.75;11.27;;;5.50;99.90;;;;;;5067899;28;20032;-70
2023/12/19 12:33:27;;;;;;;19.95;9.15;;;5.50;99.90;;;;;;5073200;28;20028;-70